sensor_id;sensor_type;location;lat;lon;timestamp;temperature;humidity
12013;DHT22;6065;48.138;16.402;2024-02-15T00:02:17;10.30;99.90
12013;DHT22;6065;48.138;16.402;2024-02-15T00:04:43;10.30;99.90
12013;DHT22;6065;48.138;16.402;2024-02-15T00:07:12;10.30;99.90
12013;DHT22;6065;48.138;16.402;2024-02-15T00:09:38;10.30;99.90
12013;DHT22;6065;48.138;16.402;2024-02-15T00:12:05;10.30;99.90
12013;DHT22;6065;48.138;16.402;2024-02-15T00:14:33;10.30;99.90
12013;DHT22;6065;48.138;16.402;2024-02-15T00:17:00;10.30;99.90
12013;DHT22;6065;48.138;16.402;2024-02-15T00:19:27;10.30;99.90
12013;DHT22;6065;48.138;16.402;2024-02-15T00:21:55;10.30;99.90
12013;DHT22;6065;48.138;16.402;2024-02-15T00:24:23;10.30;99.90
12013;DHT22;6065;48.138;16.402;2024-02-15T00:26:50;10.30;99.90
12013;DHT22;6065;48.138;16.402;2024-02-15T00:29:17;10.20;99.90
12013;DHT22;6065;48.138;16.402;2024-02-15T00:31:44;10.20;99.90
12013;DHT22;6065;48.138;16.402;2024-02-15T00:34:10;10.20;99.90
12013;DHT22;6065;48.138;16.402;2024-02-15T00:36:37;10.20;99.90
12013;DHT22;6065;48.138;16.402;2024-02-15T00:39:04;10.20;99.90
12013;DHT22;6065;48.138;16.402;2024-02-15T00:41:33;10.10;99.90
12013;DHT22;6065;48.138;16.402;2024-02-15T00:44:00;10.10;99.90
12013;DHT22;6065;48.138;16.402;2024-02-15T00:46:26;10.00;99.90
12013;DHT22;6065;48.138;16.402;2024-02-15T00:48:54;10.00;99.90
12013;DHT22;6065;48.138;16.402;2024-02-15T00:51:21;9.90;99.90
12013;DHT22;6065;48.138;16.402;2024-02-15T00:53:48;9.90;99.90
12013;DHT22;6065;48.138;16.402;2024-02-15T00:56:15;9.80;99.90
12013;DHT22;6065;48.138;16.402;2024-02-15T00:58:44;9.80;99.90
12013;DHT22;6065;48.138;16.402;2024-02-15T01:01:11;9.80;99.90
12013;DHT22;6065;48.138;16.402;2024-02-15T01:03:37;9.70;99.90
12013;DHT22;6065;48.138;16.402;2024-02-15T01:06:04;9.60;99.90
12013;DHT22;6065;48.138;16.402;2024-02-15T01:08:32;9.50;99.90
12013;DHT22;6065;48.138;16.402;2024-02-15T01:10:59;9.50;99.90
12013;DHT22;6065;48.138;16.402;2024-02-15T01:13:25;9.50;99.90
12013;DHT22;6065;48.138;16.402;2024-02-15T01:15:54;9.40;99.90
12013;DHT22;6065;48.138;16.402;2024-02-15T01:18:21;9.40;99.90
12013;DHT22;6065;48.138;16.402;2024-02-15T01:20:48;9.30;99.90
12013;DHT22;6065;48.138;16.402;2024-02-15T01:23:14;9.30;99.90
12013;DHT22;6065;48.138;16.402;2024-02-15T01:25:41;9.20;99.90
12013;DHT22;6065;48.138;16.402;2024-02-15T01:28:08;9.20;99.90
12013;DHT22;6065;48.138;16.402;2024-02-15T01:30:35;9.10;99.90
12013;DHT22;6065;48.138;16.402;2024-02-15T01:33:04;9.00;99.90
12013;DHT22;6065;48.138;16.402;2024-02-15T01:35:31;9.00;99.90
12013;DHT22;6065;48.138;16.402;2024-02-15T01:37:58;9.00;99.90
12013;DHT22;6065;48.138;16.402;2024-02-15T01:40:25;8.90;99.90
12013;DHT22;6065;48.138;16.402;2024-02-15T01:42:52;8.90;99.90
12013;DHT22;6065;48.138;16.402;2024-02-15T01:45:19;8.90;99.90
12013;DHT22;6065;48.138;16.402;2024-02-15T01:47:47;8.90;99.90
12013;DHT22;6065;48.138;16.402;2024-02-15T01:50:15;8.80;99.90
12013;DHT22;6065;48.138;16.402;2024-02-15T01:52:43;8.80;99.90
12013;DHT22;6065;48.138;16.402;2024-02-15T01:55:12;8.80;99.90
12013;DHT22;6065;48.138;16.402;2024-02-15T01:57:40;8.80;99.90
12013;DHT22;6065;48.138;16.402;2024-02-15T02:00:10;8.70;99.90
12013;DHT22;6065;48.138;16.402;2024-02-15T02:02:38;8.70;99.90
12013;DHT22;6065;48.138;16.402;2024-02-15T02:05:06;8.70;99.90
12013;DHT22;6065;48.138;16.402;2024-02-15T02:07:34;8.70;99.90
12013;DHT22;6065;48.138;16.402;2024-02-15T02:10:03;8.70;99.90
12013;DHT22;6065;48.138;16.402;2024-02-15T02:12:30;8.70;99.90
12013;DHT22;6065;48.138;16.402;2024-02-15T02:14:57;8.60;99.90
12013;DHT22;6065;48.138;16.402;2024-02-15T02:17:24;8.60;99.90
12013;DHT22;6065;48.138;16.402;2024-02-15T02:19:51;8.60;99.90
12013;DHT22;6065;48.138;16.402;2024-02-15T02:22:18;8.60;99.90
12013;DHT22;6065;48.138;16.402;2024-02-15T02:24:58;8.60;99.90
12013;DHT22;6065;48.138;16.402;2024-02-15T02:27:26;8.70;99.90
12013;DHT22;6065;48.138;16.402;2024-02-15T02:29:53;8.70;99.90
12013;DHT22;6065;48.138;16.402;2024-02-15T02:32:21;8.70;99.90
12013;DHT22;6065;48.138;16.402;2024-02-15T02:34:48;8.60;99.90
12013;DHT22;6065;48.138;16.402;2024-02-15T02:37:14;8.70;99.90
12013;DHT22;6065;48.138;16.402;2024-02-15T02:39:42;8.70;99.90
12013;DHT22;6065;48.138;16.402;2024-02-15T02:42:10;8.70;99.90
12013;DHT22;6065;48.138;16.402;2024-02-15T02:44:38;8.70;99.90
12013;DHT22;6065;48.138;16.402;2024-02-15T02:47:05;8.70;99.90
12013;DHT22;6065;48.138;16.402;2024-02-15T02:49:31;8.70;99.90
12013;DHT22;6065;48.138;16.402;2024-02-15T02:51:58;8.70;99.90
12013;DHT22;6065;48.138;16.402;2024-02-15T02:54:25;8.70;99.90
12013;DHT22;6065;48.138;16.402;2024-02-15T02:56:52;8.70;99.90
12013;DHT22;6065;48.138;16.402;2024-02-15T02:59:20;8.70;99.90
12013;DHT22;6065;48.138;16.402;2024-02-15T03:01:47;8.70;99.90
12013;DHT22;6065;48.138;16.402;2024-02-15T03:04:14;8.70;99.90
12013;DHT22;6065;48.138;16.402;2024-02-15T03:06:42;8.70;99.90
12013;DHT22;6065;48.138;16.402;2024-02-15T03:09:09;8.70;99.90
12013;DHT22;6065;48.138;16.402;2024-02-15T03:11:36;8.70;99.90
12013;DHT22;6065;48.138;16.402;2024-02-15T03:14:03;8.70;99.90
12013;DHT22;6065;48.138;16.402;2024-02-15T03:16:32;8.70;99.90
12013;DHT22;6065;48.138;16.402;2024-02-15T03:18:59;8.70;99.90
12013;DHT22;6065;48.138;16.402;2024-02-15T03:21:26;8.70;99.90
12013;DHT22;6065;48.138;16.402;2024-02-15T03:23:53;8.80;99.90
12013;DHT22;6065;48.138;16.402;2024-02-15T03:26:28;8.80;99.90
12013;DHT22;6065;48.138;16.402;2024-02-15T03:28:55;8.80;99.90
12013;DHT22;6065;48.138;16.402;2024-02-15T03:31:22;8.80;99.90
12013;DHT22;6065;48.138;16.402;2024-02-15T03:33:50;8.80;99.90
12013;DHT22;6065;48.138;16.402;2024-02-15T03:36:18;8.80;99.90
12013;DHT22;6065;48.138;16.402;2024-02-15T03:38:45;8.80;99.90
12013;DHT22;6065;48.138;16.402;2024-02-15T03:41:12;8.80;99.90
12013;DHT22;6065;48.138;16.402;2024-02-15T03:43:39;8.90;99.90
12013;DHT22;6065;48.138;16.402;2024-02-15T03:46:06;8.80;99.90
12013;DHT22;6065;48.138;16.402;2024-02-15T03:48:34;8.90;99.90
12013;DHT22;6065;48.138;16.402;2024-02-15T03:51:02;8.80;99.90
12013;DHT22;6065;48.138;16.402;2024-02-15T03:53:29;8.90;99.90
12013;DHT22;6065;48.138;16.402;2024-02-15T03:55:56;8.80;99.90
12013;DHT22;6065;48.138;16.402;2024-02-15T03:58:23;8.80;99.90
12013;DHT22;6065;48.138;16.402;2024-02-15T04:00:50;8.80;99.90
12013;DHT22;6065;48.138;16.402;2024-02-15T04:03:17;8.80;99.90
12013;DHT22;6065;48.138;16.402;2024-02-15T04:05:44;8.80;99.90
12013;DHT22;6065;48.138;16.402;2024-02-15T04:08:12;8.80;99.90
12013;DHT22;6065;48.138;16.402;2024-02-15T04:10:41;8.80;99.90
12013;DHT22;6065;48.138;16.402;2024-02-15T04:13:09;8.70;99.90
12013;DHT22;6065;48.138;16.402;2024-02-15T04:15:35;8.70;99.90
12013;DHT22;6065;48.138;16.402;2024-02-15T04:18:02;8.80;99.90
12013;DHT22;6065;48.138;16.402;2024-02-15T04:20:29;8.80;99.90
12013;DHT22;6065;48.138;16.402;2024-02-15T04:22:56;8.70;99.90
12013;DHT22;6065;48.138;16.402;2024-02-15T04:25:27;8.50;99.90
12013;DHT22;6065;48.138;16.402;2024-02-15T04:27:56;8.50;99.90
12013;DHT22;6065;48.138;16.402;2024-02-15T04:30:28;8.50;99.90
12013;DHT22;6065;48.138;16.402;2024-02-15T04:32:55;8.50;99.90
12013;DHT22;6065;48.138;16.402;2024-02-15T04:35:22;8.50;99.90
12013;DHT22;6065;48.138;16.402;2024-02-15T04:37:49;8.50;99.90
12013;DHT22;6065;48.138;16.402;2024-02-15T04:40:18;8.50;99.90
12013;DHT22;6065;48.138;16.402;2024-02-15T04:42:46;8.50;99.90
12013;DHT22;6065;48.138;16.402;2024-02-15T04:45:14;8.50;99.90
12013;DHT22;6065;48.138;16.402;2024-02-15T04:47:40;8.60;99.90
12013;DHT22;6065;48.138;16.402;2024-02-15T04:50:07;8.60;99.90
12013;DHT22;6065;48.138;16.402;2024-02-15T04:52:34;8.60;99.90
12013;DHT22;6065;48.138;16.402;2024-02-15T04:55:01;8.60;99.90
12013;DHT22;6065;48.138;16.402;2024-02-15T04:57:30;8.60;99.90
12013;DHT22;6065;48.138;16.402;2024-02-15T05:00:00;8.60;99.90
12013;DHT22;6065;48.138;16.402;2024-02-15T05:02:27;8.70;99.90
12013;DHT22;6065;48.138;16.402;2024-02-15T05:04:55;8.70;99.90
12013;DHT22;6065;48.138;16.402;2024-02-15T05:07:22;8.70;99.90
12013;DHT22;6065;48.138;16.402;2024-02-15T05:09:49;8.70;99.90
12013;DHT22;6065;48.138;16.402;2024-02-15T05:12:21;8.70;99.90
12013;DHT22;6065;48.138;16.402;2024-02-15T05:14:48;8.70;99.90
12013;DHT22;6065;48.138;16.402;2024-02-15T05:17:17;8.70;99.90
12013;DHT22;6065;48.138;16.402;2024-02-15T05:19:44;8.70;99.90
12013;DHT22;6065;48.138;16.402;2024-02-15T05:22:11;8.70;99.90
12013;DHT22;6065;48.138;16.402;2024-02-15T05:24:38;8.70;99.90
12013;DHT22;6065;48.138;16.402;2024-02-15T05:27:05;8.70;99.90
12013;DHT22;6065;48.138;16.402;2024-02-15T05:29:32;8.70;99.90
12013;DHT22;6065;48.138;16.402;2024-02-15T05:32:01;8.70;99.90
12013;DHT22;6065;48.138;16.402;2024-02-15T05:34:29;8.70;99.90
12013;DHT22;6065;48.138;16.402;2024-02-15T05:36:56;8.70;99.90
12013;DHT22;6065;48.138;16.402;2024-02-15T05:39:23;8.70;99.90
12013;DHT22;6065;48.138;16.402;2024-02-15T05:41:50;8.70;99.90
12013;DHT22;6065;48.138;16.402;2024-02-15T05:44:17;8.70;99.90
12013;DHT22;6065;48.138;16.402;2024-02-15T05:46:46;8.70;99.90
12013;DHT22;6065;48.138;16.402;2024-02-15T05:49:12;8.70;99.90
12013;DHT22;6065;48.138;16.402;2024-02-15T05:51:44;8.70;99.90
12013;DHT22;6065;48.138;16.402;2024-02-15T05:54:12;8.70;99.90
12013;DHT22;6065;48.138;16.402;2024-02-15T05:56:39;8.70;99.90
12013;DHT22;6065;48.138;16.402;2024-02-15T05:59:07;8.70;99.90
12013;DHT22;6065;48.138;16.402;2024-02-15T06:01:36;8.80;99.90
12013;DHT22;6065;48.138;16.402;2024-02-15T06:04:04;8.80;99.90
12013;DHT22;6065;48.138;16.402;2024-02-15T06:06:33;8.80;99.90
12013;DHT22;6065;48.138;16.402;2024-02-15T06:09:01;8.80;99.90
12013;DHT22;6065;48.138;16.402;2024-02-15T06:11:30;8.70;99.90
12013;DHT22;6065;48.138;16.402;2024-02-15T06:13:57;8.70;99.90
12013;DHT22;6065;48.138;16.402;2024-02-15T06:16:24;8.70;99.90
12013;DHT22;6065;48.138;16.402;2024-02-15T06:18:50;8.70;99.90
12013;DHT22;6065;48.138;16.402;2024-02-15T06:21:17;8.80;99.90
12013;DHT22;6065;48.138;16.402;2024-02-15T06:23:46;8.70;99.90
12013;DHT22;6065;48.138;16.402;2024-02-15T06:26:15;8.70;99.90
12013;DHT22;6065;48.138;16.402;2024-02-15T06:28:42;8.70;99.90
12013;DHT22;6065;48.138;16.402;2024-02-15T06:31:26;8.70;99.90
12013;DHT22;6065;48.138;16.402;2024-02-15T06:34:10;8.70;99.90
12013;DHT22;6065;48.138;16.402;2024-02-15T06:36:55;8.70;99.90
12013;DHT22;6065;48.138;16.402;2024-02-15T06:39:40;8.70;99.90
12013;DHT22;6065;48.138;16.402;2024-02-15T06:42:12;8.70;99.90
12013;DHT22;6065;48.138;16.402;2024-02-15T06:44:41;8.70;99.90
12013;DHT22;6065;48.138;16.402;2024-02-15T06:47:08;8.70;99.90
12013;DHT22;6065;48.138;16.402;2024-02-15T06:49:36;8.70;99.90
12013;DHT22;6065;48.138;16.402;2024-02-15T06:52:05;8.70;99.90
12013;DHT22;6065;48.138;16.402;2024-02-15T06:54:32;8.70;99.90
12013;DHT22;6065;48.138;16.402;2024-02-15T06:56:59;8.70;99.90
12013;DHT22;6065;48.138;16.402;2024-02-15T06:59:29;8.70;99.90
12013;DHT22;6065;48.138;16.402;2024-02-15T07:01:57;8.70;99.90
12013;DHT22;6065;48.138;16.402;2024-02-15T07:04:24;8.70;99.90
12013;DHT22;6065;48.138;16.402;2024-02-15T07:06:52;8.70;99.90
12013;DHT22;6065;48.138;16.402;2024-02-15T07:09:19;8.80;99.90
12013;DHT22;6065;48.138;16.402;2024-02-15T07:11:48;8.80;99.90
12013;DHT22;6065;48.138;16.402;2024-02-15T07:14:15;8.80;99.90
12013;DHT22;6065;48.138;16.402;2024-02-15T07:16:45;8.80;99.90
12013;DHT22;6065;48.138;16.402;2024-02-15T07:19:12;8.90;99.90
12013;DHT22;6065;48.138;16.402;2024-02-15T07:21:39;8.90;99.90
12013;DHT22;6065;48.138;16.402;2024-02-15T07:24:06;8.90;99.90
12013;DHT22;6065;48.138;16.402;2024-02-15T07:26:33;8.90;99.90
12013;DHT22;6065;48.138;16.402;2024-02-15T07:29:01;8.90;99.90
12013;DHT22;6065;48.138;16.402;2024-02-15T07:31:31;8.90;99.90
12013;DHT22;6065;48.138;16.402;2024-02-15T07:33:59;8.90;99.90
12013;DHT22;6065;48.138;16.402;2024-02-15T07:36:27;8.90;99.90
12013;DHT22;6065;48.138;16.402;2024-02-15T07:38:56;8.90;99.90
12013;DHT22;6065;48.138;16.402;2024-02-15T07:41:26;9.00;99.90
12013;DHT22;6065;48.138;16.402;2024-02-15T07:43:53;9.00;99.90
12013;DHT22;6065;48.138;16.402;2024-02-15T07:46:20;9.00;99.90
12013;DHT22;6065;48.138;16.402;2024-02-15T07:48:47;9.00;99.90
12013;DHT22;6065;48.138;16.402;2024-02-15T07:51:16;9.00;99.90
12013;DHT22;6065;48.138;16.402;2024-02-15T07:53:43;9.00;99.90
12013;DHT22;6065;48.138;16.402;2024-02-15T07:56:10;9.00;99.90
12013;DHT22;6065;48.138;16.402;2024-02-15T07:58:40;9.00;99.90
12013;DHT22;6065;48.138;16.402;2024-02-15T08:01:08;9.00;99.90
12013;DHT22;6065;48.138;16.402;2024-02-15T08:03:34;9.00;99.90
12013;DHT22;6065;48.138;16.402;2024-02-15T08:06:01;9.00;99.90
12013;DHT22;6065;48.138;16.402;2024-02-15T08:08:34;9.00;99.90
12013;DHT22;6065;48.138;16.402;2024-02-15T08:11:01;9.10;99.90
12013;DHT22;6065;48.138;16.402;2024-02-15T08:13:28;9.10;99.90
12013;DHT22;6065;48.138;16.402;2024-02-15T08:15:55;9.10;99.90
12013;DHT22;6065;48.138;16.402;2024-02-15T08:18:22;9.10;99.90
12013;DHT22;6065;48.138;16.402;2024-02-15T08:20:50;9.10;99.90
12013;DHT22;6065;48.138;16.402;2024-02-15T08:23:16;9.10;99.90
12013;DHT22;6065;48.138;16.402;2024-02-15T08:25:45;9.10;99.90
12013;DHT22;6065;48.138;16.402;2024-02-15T08:28:12;9.10;99.90
12013;DHT22;6065;48.138;16.402;2024-02-15T08:30:38;9.20;99.90
12013;DHT22;6065;48.138;16.402;2024-02-15T08:33:06;9.20;99.90
12013;DHT22;6065;48.138;16.402;2024-02-15T08:35:36;9.20;99.90
12013;DHT22;6065;48.138;16.402;2024-02-15T08:38:02;9.20;99.90
12013;DHT22;6065;48.138;16.402;2024-02-15T08:40:30;9.20;99.90
12013;DHT22;6065;48.138;16.402;2024-02-15T08:42:59;9.30;99.90
12013;DHT22;6065;48.138;16.402;2024-02-15T08:45:25;9.30;99.90
12013;DHT22;6065;48.138;16.402;2024-02-15T08:47:52;9.30;99.90
12013;DHT22;6065;48.138;16.402;2024-02-15T08:50:19;9.30;99.90
12013;DHT22;6065;48.138;16.402;2024-02-15T08:52:48;9.30;99.90
12013;DHT22;6065;48.138;16.402;2024-02-15T08:55:15;9.30;99.90
12013;DHT22;6065;48.138;16.402;2024-02-15T08:57:42;9.40;99.90
12013;DHT22;6065;48.138;16.402;2024-02-15T09:00:11;9.40;99.90
12013;DHT22;6065;48.138;16.402;2024-02-15T09:02:41;9.40;99.90
12013;DHT22;6065;48.138;16.402;2024-02-15T09:05:08;9.40;99.90
12013;DHT22;6065;48.138;16.402;2024-02-15T09:07:35;9.40;99.90
12013;DHT22;6065;48.138;16.402;2024-02-15T09:10:03;9.50;99.90
12013;DHT22;6065;48.138;16.402;2024-02-15T09:12:29;9.50;99.90
12013;DHT22;6065;48.138;16.402;2024-02-15T09:14:57;9.50;99.90
12013;DHT22;6065;48.138;16.402;2024-02-15T09:17:25;9.50;99.90
12013;DHT22;6065;48.138;16.402;2024-02-15T09:19:52;9.60;99.90
12013;DHT22;6065;48.138;16.402;2024-02-15T09:22:20;9.60;99.90
12013;DHT22;6065;48.138;16.402;2024-02-15T09:24:47;9.70;99.90
12013;DHT22;6065;48.138;16.402;2024-02-15T09:27:14;9.70;99.90
12013;DHT22;6065;48.138;16.402;2024-02-15T09:29:41;9.80;99.90
12013;DHT22;6065;48.138;16.402;2024-02-15T09:32:08;9.80;99.90
12013;DHT22;6065;48.138;16.402;2024-02-15T09:34:36;9.90;99.90
12013;DHT22;6065;48.138;16.402;2024-02-15T09:37:03;10.00;99.90
12013;DHT22;6065;48.138;16.402;2024-02-15T09:39:30;10.10;99.90
12013;DHT22;6065;48.138;16.402;2024-02-15T09:41:57;10.20;99.90
12013;DHT22;6065;48.138;16.402;2024-02-15T09:44:24;10.30;99.90
12013;DHT22;6065;48.138;16.402;2024-02-15T09:46:56;10.30;99.90
12013;DHT22;6065;48.138;16.402;2024-02-15T09:49:27;10.40;99.90
12013;DHT22;6065;48.138;16.402;2024-02-15T09:51:56;10.50;99.90
12013;DHT22;6065;48.138;16.402;2024-02-15T09:54:25;10.50;99.90
12013;DHT22;6065;48.138;16.402;2024-02-15T09:56:52;10.50;99.90
12013;DHT22;6065;48.138;16.402;2024-02-15T09:59:20;10.50;99.90
12013;DHT22;6065;48.138;16.402;2024-02-15T10:01:47;10.60;99.90
12013;DHT22;6065;48.138;16.402;2024-02-15T10:04:15;10.60;99.90
12013;DHT22;6065;48.138;16.402;2024-02-15T10:06:41;10.70;99.90
12013;DHT22;6065;48.138;16.402;2024-02-15T10:09:26;10.70;99.90
12013;DHT22;6065;48.138;16.402;2024-02-15T10:11:54;10.80;99.90
12013;DHT22;6065;48.138;16.402;2024-02-15T10:14:22;10.90;99.90
12013;DHT22;6065;48.138;16.402;2024-02-15T10:16:49;11.00;99.90
12013;DHT22;6065;48.138;16.402;2024-02-15T10:19:18;11.00;99.90
12013;DHT22;6065;48.138;16.402;2024-02-15T10:21:46;11.10;99.90
12013;DHT22;6065;48.138;16.402;2024-02-15T10:24:12;11.10;99.90
12013;DHT22;6065;48.138;16.402;2024-02-15T10:26:41;11.20;99.90
12013;DHT22;6065;48.138;16.402;2024-02-15T10:29:08;11.30;99.90
12013;DHT22;6065;48.138;16.402;2024-02-15T10:31:38;11.30;99.90
12013;DHT22;6065;48.138;16.402;2024-02-15T10:34:06;11.30;99.90
12013;DHT22;6065;48.138;16.402;2024-02-15T10:36:34;11.30;99.90
12013;DHT22;6065;48.138;16.402;2024-02-15T10:39:10;11.40;99.90
12013;DHT22;6065;48.138;16.402;2024-02-15T10:41:44;11.40;99.90
12013;DHT22;6065;48.138;16.402;2024-02-15T10:44:13;11.60;99.90
12013;DHT22;6065;48.138;16.402;2024-02-15T10:46:42;11.70;99.90
12013;DHT22;6065;48.138;16.402;2024-02-15T10:49:09;11.80;99.90
12013;DHT22;6065;48.138;16.402;2024-02-15T10:51:36;11.90;99.90
12013;DHT22;6065;48.138;16.402;2024-02-15T10:54:08;12.10;99.90
12013;DHT22;6065;48.138;16.402;2024-02-15T10:56:42;12.20;99.90
12013;DHT22;6065;48.138;16.402;2024-02-15T10:59:14;12.30;99.90
12013;DHT22;6065;48.138;16.402;2024-02-15T11:01:42;12.40;99.90
12013;DHT22;6065;48.138;16.402;2024-02-15T11:04:09;12.50;99.90
12013;DHT22;6065;48.138;16.402;2024-02-15T11:06:39;12.60;99.90
12013;DHT22;6065;48.138;16.402;2024-02-15T11:09:08;12.70;99.90
12013;DHT22;6065;48.138;16.402;2024-02-15T11:11:36;12.80;99.90
12013;DHT22;6065;48.138;16.402;2024-02-15T11:16:47;13.00;99.90
12013;DHT22;6065;48.138;16.402;2024-02-15T11:19:24;13.20;99.90
12013;DHT22;6065;48.138;16.402;2024-02-15T11:22:07;13.30;99.90
12013;DHT22;6065;48.138;16.402;2024-02-15T11:24:36;13.40;99.90
12013;DHT22;6065;48.138;16.402;2024-02-15T11:27:03;13.60;99.90
12013;DHT22;6065;48.138;16.402;2024-02-15T11:29:49;13.70;99.90
12013;DHT22;6065;48.138;16.402;2024-02-15T11:35:20;13.90;99.90
12013;DHT22;6065;48.138;16.402;2024-02-15T11:37:51;13.90;99.90
12013;DHT22;6065;48.138;16.402;2024-02-15T11:40:18;13.90;99.90
12013;DHT22;6065;48.138;16.402;2024-02-15T11:42:45;13.90;99.90
12013;DHT22;6065;48.138;16.402;2024-02-15T11:45:13;13.90;99.90
12013;DHT22;6065;48.138;16.402;2024-02-15T11:47:43;13.80;99.90
12013;DHT22;6065;48.138;16.402;2024-02-15T11:50:14;13.80;99.90
12013;DHT22;6065;48.138;16.402;2024-02-15T11:52:42;13.70;99.90
12013;DHT22;6065;48.138;16.402;2024-02-15T11:55:09;13.70;99.90
12013;DHT22;6065;48.138;16.402;2024-02-15T11:57:38;13.70;99.90
12013;DHT22;6065;48.138;16.402;2024-02-15T12:00:22;13.60;99.90
12013;DHT22;6065;48.138;16.402;2024-02-15T12:03:09;13.60;99.90
12013;DHT22;6065;48.138;16.402;2024-02-15T12:05:53;13.60;99.90
12013;DHT22;6065;48.138;16.402;2024-02-15T12:08:40;13.60;99.90
12013;DHT22;6065;48.138;16.402;2024-02-15T12:11:27;13.60;99.90
12013;DHT22;6065;48.138;16.402;2024-02-15T12:14:12;13.60;99.90
12013;DHT22;6065;48.138;16.402;2024-02-15T12:17:00;13.60;99.90
12013;DHT22;6065;48.138;16.402;2024-02-15T12:19:44;13.60;99.90
12013;DHT22;6065;48.138;16.402;2024-02-15T12:22:11;13.60;99.90
12013;DHT22;6065;48.138;16.402;2024-02-15T12:24:39;13.60;99.90
12013;DHT22;6065;48.138;16.402;2024-02-15T12:27:06;13.70;99.90
12013;DHT22;6065;48.138;16.402;2024-02-15T12:29:33;13.70;99.90
12013;DHT22;6065;48.138;16.402;2024-02-15T12:32:00;13.70;99.90
12013;DHT22;6065;48.138;16.402;2024-02-15T12:34:29;13.80;99.90
12013;DHT22;6065;48.138;16.402;2024-02-15T12:37:04;13.90;99.90
12013;DHT22;6065;48.138;16.402;2024-02-15T12:39:31;13.90;99.90
12013;DHT22;6065;48.138;16.402;2024-02-15T12:41:59;13.90;99.90
12013;DHT22;6065;48.138;16.402;2024-02-15T12:44:27;13.90;99.90
12013;DHT22;6065;48.138;16.402;2024-02-15T12:46:58;14.00;99.90
12013;DHT22;6065;48.138;16.402;2024-02-15T12:49:29;14.00;99.90
12013;DHT22;6065;48.138;16.402;2024-02-15T12:54:37;14.10;99.90
12013;DHT22;6065;48.138;16.402;2024-02-15T12:57:09;14.10;99.90
12013;DHT22;6065;48.138;16.402;2024-02-15T12:59:36;14.10;99.90
12013;DHT22;6065;48.138;16.402;2024-02-15T13:02:02;14.10;99.90
12013;DHT22;6065;48.138;16.402;2024-02-15T13:04:29;14.10;99.90
12013;DHT22;6065;48.138;16.402;2024-02-15T13:06:56;14.10;99.90
12013;DHT22;6065;48.138;16.402;2024-02-15T13:09:23;14.10;99.90
12013;DHT22;6065;48.138;16.402;2024-02-15T13:11:50;14.10;99.90
12013;DHT22;6065;48.138;16.402;2024-02-15T13:14:20;14.10;99.90
12013;DHT22;6065;48.138;16.402;2024-02-15T13:16:47;14.10;99.90
12013;DHT22;6065;48.138;16.402;2024-02-15T13:19:14;14.10;99.90
12013;DHT22;6065;48.138;16.402;2024-02-15T13:21:41;14.00;99.90
12013;DHT22;6065;48.138;16.402;2024-02-15T13:24:08;13.90;99.90
12013;DHT22;6065;48.138;16.402;2024-02-15T13:26:36;13.90;99.90
12013;DHT22;6065;48.138;16.402;2024-02-15T13:29:03;13.90;99.90
12013;DHT22;6065;48.138;16.402;2024-02-15T13:31:31;13.80;99.90
12013;DHT22;6065;48.138;16.402;2024-02-15T13:34:00;13.80;99.90
12013;DHT22;6065;48.138;16.402;2024-02-15T13:36:26;13.80;99.90
12013;DHT22;6065;48.138;16.402;2024-02-15T13:38:54;13.80;99.90
12013;DHT22;6065;48.138;16.402;2024-02-15T13:41:20;13.80;99.90
12013;DHT22;6065;48.138;16.402;2024-02-15T13:43:47;13.90;99.90
12013;DHT22;6065;48.138;16.402;2024-02-15T13:46:14;13.90;99.90
12013;DHT22;6065;48.138;16.402;2024-02-15T13:48:43;13.90;99.90
12013;DHT22;6065;48.138;16.402;2024-02-15T13:51:10;14.00;99.90
12013;DHT22;6065;48.138;16.402;2024-02-15T13:53:36;14.00;99.90
12013;DHT22;6065;48.138;16.402;2024-02-15T13:56:03;13.90;99.90
12013;DHT22;6065;48.138;16.402;2024-02-15T13:58:31;13.90;99.90
12013;DHT22;6065;48.138;16.402;2024-02-15T14:00:58;13.90;99.90
12013;DHT22;6065;48.138;16.402;2024-02-15T14:03:29;13.90;99.90
12013;DHT22;6065;48.138;16.402;2024-02-15T14:05:57;13.90;99.90
12013;DHT22;6065;48.138;16.402;2024-02-15T14:08:24;13.90;99.90
12013;DHT22;6065;48.138;16.402;2024-02-15T14:10:51;13.90;99.90
12013;DHT22;6065;48.138;16.402;2024-02-15T14:13:18;13.90;99.90
12013;DHT22;6065;48.138;16.402;2024-02-15T14:15:47;13.90;99.90
12013;DHT22;6065;48.138;16.402;2024-02-15T14:18:14;13.90;99.90
12013;DHT22;6065;48.138;16.402;2024-02-15T14:20:43;14.00;99.90
12013;DHT22;6065;48.138;16.402;2024-02-15T14:23:13;14.00;99.90
12013;DHT22;6065;48.138;16.402;2024-02-15T14:25:40;14.00;99.90
12013;DHT22;6065;48.138;16.402;2024-02-15T14:28:07;14.00;99.90
12013;DHT22;6065;48.138;16.402;2024-02-15T14:30:34;14.00;99.90
12013;DHT22;6065;48.138;16.402;2024-02-15T14:33:18;14.00;99.90
12013;DHT22;6065;48.138;16.402;2024-02-15T14:35:45;14.00;99.90
12013;DHT22;6065;48.138;16.402;2024-02-15T14:38:13;13.90;99.90
12013;DHT22;6065;48.138;16.402;2024-02-15T14:40:42;13.80;99.90
12013;DHT22;6065;48.138;16.402;2024-02-15T14:43:10;13.80;99.90
12013;DHT22;6065;48.138;16.402;2024-02-15T14:45:38;13.80;99.90
12013;DHT22;6065;48.138;16.402;2024-02-15T14:48:06;13.70;99.90
12013;DHT22;6065;48.138;16.402;2024-02-15T14:50:34;13.70;99.90
12013;DHT22;6065;48.138;16.402;2024-02-15T14:53:01;13.60;99.90
12013;DHT22;6065;48.138;16.402;2024-02-15T14:55:29;13.60;99.90
12013;DHT22;6065;48.138;16.402;2024-02-15T14:57:57;13.50;99.90
12013;DHT22;6065;48.138;16.402;2024-02-15T15:00:24;13.50;99.90
12013;DHT22;6065;48.138;16.402;2024-02-15T15:02:52;13.40;99.90
12013;DHT22;6065;48.138;16.402;2024-02-15T15:05:22;13.40;99.90
12013;DHT22;6065;48.138;16.402;2024-02-15T15:08:06;13.40;99.90
12013;DHT22;6065;48.138;16.402;2024-02-15T15:10:52;13.40;99.90
12013;DHT22;6065;48.138;16.402;2024-02-15T15:13:36;13.30;99.90
12013;DHT22;6065;48.138;16.402;2024-02-15T15:16:03;13.30;99.90
12013;DHT22;6065;48.138;16.402;2024-02-15T15:18:30;13.30;99.90
12013;DHT22;6065;48.138;16.402;2024-02-15T15:20:57;13.30;99.90
12013;DHT22;6065;48.138;16.402;2024-02-15T15:23:24;13.20;99.90
12013;DHT22;6065;48.138;16.402;2024-02-15T15:25:53;13.20;99.90
12013;DHT22;6065;48.138;16.402;2024-02-15T15:28:19;13.10;99.90
12013;DHT22;6065;48.138;16.402;2024-02-15T15:30:48;13.10;99.90
12013;DHT22;6065;48.138;16.402;2024-02-15T15:33:16;13.00;99.90
12013;DHT22;6065;48.138;16.402;2024-02-15T15:35:43;12.90;99.90
12013;DHT22;6065;48.138;16.402;2024-02-15T15:38:10;12.90;99.90
12013;DHT22;6065;48.138;16.402;2024-02-15T15:40:37;12.80;99.90
12013;DHT22;6065;48.138;16.402;2024-02-15T15:43:05;12.70;99.90
12013;DHT22;6065;48.138;16.402;2024-02-15T15:45:32;12.60;99.90
12013;DHT22;6065;48.138;16.402;2024-02-15T15:47:59;12.50;99.90
12013;DHT22;6065;48.138;16.402;2024-02-15T15:50:26;12.50;99.90
12013;DHT22;6065;48.138;16.402;2024-02-15T15:52:54;12.40;99.90
12013;DHT22;6065;48.138;16.402;2024-02-15T15:55:23;12.30;99.90
12013;DHT22;6065;48.138;16.402;2024-02-15T15:57:51;12.30;99.90